createdAt,value
2023-04-02T00:02:21.262Z,0.60
2023-04-02T00:05:31.707Z,0.60
2023-04-02T00:08:03.190Z,0.60
2023-04-02T00:10:49.034Z,0.60
2023-04-02T00:13:31.795Z,0.60
2023-04-02T00:15:59.823Z,0.60
2023-04-02T00:18:27.688Z,0.60
2023-04-02T00:21:18.523Z,0.60
2023-04-02T00:23:45.819Z,0.60
2023-04-02T00:26:25.421Z,0.60
2023-04-02T00:28:52.741Z,0.60
2023-04-02T00:31:20.889Z,0.60
2023-04-02T00:33:49.616Z,0.60
2023-04-02T00:36:20.207Z,0.60
2023-04-02T00:38:48.789Z,0.60
2023-04-02T00:41:23.794Z,0.60
2023-04-02T00:43:51.927Z,0.60
2023-04-02T00:46:24.310Z,0.60
2023-04-02T00:48:59.810Z,0.50
2023-04-02T00:51:32.412Z,0.50
2023-04-02T00:54:04.118Z,0.50
2023-04-02T00:56:43.353Z,0.60
2023-04-02T00:59:30.840Z,0.50
2023-04-02T01:02:26.488Z,0.60
2023-04-02T01:05:00.112Z,0.50
2023-04-02T01:07:33.043Z,0.60
2023-04-02T01:10:17.825Z,0.60
2023-04-02T01:13:02.515Z,0.50
2023-04-02T01:15:38.552Z,0.50
2023-04-02T01:18:18.505Z,0.50
2023-04-02T01:21:07.090Z,0.50
2023-04-02T01:23:52.784Z,0.50
2023-04-02T01:26:36.859Z,0.60
2023-04-02T01:29:17.345Z,0.60
2023-04-02T01:31:45.408Z,0.60
2023-04-02T01:34:16.021Z,0.60
2023-04-02T01:37:04.997Z,0.60
2023-04-02T01:40:01.168Z,0.60
2023-04-02T01:42:46.343Z,0.60
2023-04-02T01:45:16.832Z,0.60
2023-04-02T01:47:44.690Z,0.70
2023-04-02T01:50:31.881Z,0.60
2023-04-02T01:53:02.728Z,0.70
2023-04-02T01:55:34.994Z,0.70
2023-04-02T01:58:03.990Z,0.70
2023-04-02T02:00:32.503Z,0.70
2023-04-02T02:03:01.335Z,0.70
2023-04-02T02:05:29.267Z,0.70
2023-04-02T02:07:58.117Z,0.60
2023-04-02T02:10:38.662Z,0.60
2023-04-02T02:13:06.888Z,0.60
2023-04-02T02:15:35.882Z,0.60
2023-04-02T02:18:05.888Z,0.70
2023-04-02T02:20:34.623Z,0.60
2023-04-02T02:23:03.854Z,0.60
2023-04-02T02:25:34.156Z,0.60
2023-04-02T02:28:01.193Z,0.60
2023-04-02T02:30:31.543Z,0.60
2023-04-02T02:33:18.011Z,0.60
2023-04-02T02:35:56.547Z,0.70
2023-04-02T02:38:29.239Z,0.70
2023-04-02T02:41:16.419Z,0.70
2023-04-02T02:43:51.242Z,0.60
2023-04-02T02:46:22.177Z,0.60
2023-04-02T02:48:51.678Z,0.60
2023-04-02T02:51:26.348Z,0.60
2023-04-02T02:53:57.375Z,0.60
2023-04-02T02:56:24.913Z,0.60
2023-04-02T02:58:53.635Z,0.60
2023-04-02T03:01:25.063Z,0.60
2023-04-02T03:03:55.085Z,0.60
2023-04-02T03:06:24.592Z,0.60
2023-04-02T03:09:02.483Z,0.60
2023-04-02T03:11:40.623Z,0.60
2023-04-02T03:14:38.055Z,0.60
2023-04-02T03:17:18.788Z,0.60
2023-04-02T03:19:57.621Z,0.60
2023-04-02T03:22:37.382Z,0.60
2023-04-02T03:25:12.606Z,0.60
2023-04-02T03:27:44.302Z,0.60
2023-04-02T03:30:43.730Z,0.60
2023-04-02T03:33:21.862Z,0.60
2023-04-02T03:36:19.610Z,0.50
2023-04-02T03:38:52.172Z,0.50
2023-04-02T03:41:34.938Z,0.50
2023-04-02T03:44:07.763Z,0.50
2023-04-02T03:46:40.919Z,0.50
2023-04-02T03:49:18.906Z,0.50
2023-04-02T03:52:13.369Z,0.50
2023-04-02T03:54:54.186Z,0.40
2023-04-02T03:57:42.791Z,0.40
2023-04-02T04:00:19.805Z,0.40
2023-04-02T04:02:52.909Z,0.40
2023-04-02T04:05:35.254Z,0.40
2023-04-02T04:08:21.220Z,0.30
2023-04-02T04:10:52.980Z,0.30
2023-04-02T04:13:31.179Z,0.30
2023-04-02T04:16:04.901Z,0.30
2023-04-02T04:18:47.382Z,0.30
2023-04-02T04:21:29.949Z,0.40
2023-04-02T04:24:04.878Z,0.40
2023-04-02T04:26:56.758Z,0.40
2023-04-02T04:29:54.194Z,0.40
2023-04-02T04:32:32.520Z,0.40
2023-04-02T04:35:31.221Z,0.40
2023-04-02T04:38:14.444Z,0.40
2023-04-02T04:40:54.247Z,0.50
2023-04-02T04:43:44.980Z,0.50
2023-04-02T04:46:29.319Z,0.50
2023-04-02T04:48:59.988Z,0.50
2023-04-02T04:51:45.548Z,0.50
2023-04-02T04:54:14.772Z,0.50
2023-04-02T04:56:49.948Z,0.60
2023-04-02T04:59:32.416Z,0.60
2023-04-02T05:02:12.227Z,0.60
2023-04-02T05:04:48.461Z,0.60
2023-04-02T05:07:44.253Z,0.60
2023-04-02T05:10:36.985Z,0.70
2023-04-02T05:13:14.174Z,0.70
2023-04-02T05:15:58.101Z,0.70
2023-04-02T05:18:41.759Z,0.70
2023-04-02T05:21:15.418Z,0.80
2023-04-02T05:24:23.903Z,0.80
2023-04-02T05:26:53.707Z,0.80
2023-04-02T05:29:36.854Z,0.80
2023-04-02T05:32:14.218Z,0.90
2023-04-02T05:34:46.389Z,0.90
2023-04-02T05:37:22.426Z,1.00
2023-04-02T05:40:06.621Z,1.00
2023-04-02T05:42:37.643Z,1.10
2023-04-02T05:45:19.068Z,1.20
2023-04-02T05:47:49.911Z,1.20
2023-04-02T05:50:20.582Z,1.30
2023-04-02T05:52:54.768Z,1.30
2023-04-02T05:55:28.024Z,1.40
2023-04-02T05:58:33.697Z,1.40
2023-04-02T06:01:02.579Z,1.50
2023-04-02T06:03:51.484Z,1.60
2023-04-02T06:06:43.372Z,1.60
2023-04-02T06:09:27.771Z,1.70
2023-04-02T06:12:24.053Z,1.70
2023-04-02T06:14:51.816Z,1.70
2023-04-02T06:17:20.969Z,1.80
2023-04-02T06:19:48.891Z,1.90
2023-04-02T06:22:36.811Z,1.90
2023-04-02T06:25:18.020Z,1.90
2023-04-02T06:27:46.482Z,2.00
2023-04-02T06:30:23.298Z,2.00
2023-04-02T06:32:51.996Z,2.00
2023-04-02T06:35:20.278Z,2.10
2023-04-02T06:37:59.618Z,2.10
2023-04-02T06:40:33.464Z,2.10
2023-04-02T06:43:26.983Z,2.20
2023-04-02T06:46:18.331Z,2.20
2023-04-02T06:49:11.855Z,2.30
2023-04-02T06:51:40.898Z,2.30
2023-04-02T06:54:14.973Z,2.30
2023-04-02T06:56:54.313Z,2.30
2023-04-02T06:59:27.442Z,2.40
2023-04-02T07:02:04.018Z,2.40
2023-04-02T07:04:31.916Z,2.50
2023-04-02T07:06:59.134Z,2.50
2023-04-02T07:09:29.908Z,2.50
2023-04-02T07:11:59.951Z,2.60
2023-04-02T07:14:26.842Z,2.60
2023-04-02T07:16:53.912Z,2.70
2023-04-02T07:19:22.988Z,2.70
2023-04-02T07:21:54.222Z,2.80
2023-04-02T07:24:22.726Z,2.80
2023-04-02T07:26:49.610Z,2.80
2023-04-02T07:29:17.479Z,2.80
2023-04-02T07:31:44.598Z,2.90
2023-04-02T07:34:11.512Z,2.90
2023-04-02T07:36:38.348Z,2.90
2023-04-02T07:39:05.301Z,3.00
2023-04-02T07:41:32.260Z,3.00
2023-04-02T07:43:59.118Z,3.00
2023-04-02T07:46:26.580Z,3.10
2023-04-02T07:48:53.452Z,3.10
2023-04-02T07:51:26.656Z,3.10
2023-04-02T07:53:56.913Z,3.20
2023-04-02T07:56:25.512Z,3.20
2023-04-02T07:58:52.380Z,3.30
2023-04-02T08:01:25.777Z,3.30
2023-04-02T08:03:57.748Z,3.30
2023-04-02T08:06:25.697Z,3.40
2023-04-02T08:08:52.716Z,3.50
2023-04-02T08:11:20.046Z,3.50
2023-04-02T08:13:46.893Z,3.60
2023-04-02T08:16:13.821Z,3.60
2023-04-02T08:18:41.287Z,3.60
2023-04-02T08:21:10.051Z,3.70
2023-04-02T08:23:37.531Z,3.70
2023-04-02T08:26:05.699Z,3.70
2023-04-02T08:28:32.671Z,3.80
2023-04-02T08:30:59.607Z,3.70
2023-04-02T08:33:26.560Z,3.60
2023-04-02T08:35:53.729Z,3.50
2023-04-02T08:38:22.030Z,3.50
2023-04-02T08:40:51.690Z,3.50
2023-04-02T08:43:24.717Z,3.50
2023-04-02T08:46:16.278Z,3.50
2023-04-02T08:48:47.327Z,3.50
2023-04-02T08:51:24.678Z,3.50
2023-04-02T08:53:59.711Z,3.40
2023-04-02T08:56:33.614Z,3.40
2023-04-02T08:59:09.061Z,3.30
2023-04-02T09:01:39.977Z,3.40
2023-04-02T09:04:16.052Z,3.50
2023-04-02T09:06:44.008Z,3.60
2023-04-02T09:09:14.085Z,3.60
2023-04-02T09:12:04.045Z,3.50
2023-04-02T09:14:42.128Z,3.50
2023-04-02T09:17:19.638Z,3.50
2023-04-02T09:19:57.274Z,3.50
2023-04-02T09:22:28.140Z,3.40
2023-04-02T09:25:00.534Z,3.40
2023-04-02T09:27:32.164Z,3.40
2023-04-02T09:30:24.315Z,3.50
2023-04-02T09:32:55.808Z,3.60
2023-04-02T09:35:27.057Z,3.70
2023-04-02T09:38:21.936Z,3.70
2023-04-02T09:41:19.127Z,3.60
2023-04-02T09:43:46.372Z,3.70
2023-04-02T09:46:13.204Z,3.70
2023-04-02T09:49:03.795Z,3.70
2023-04-02T09:51:33.296Z,3.70
2023-04-02T09:54:02.990Z,3.70
2023-04-02T09:56:35.540Z,3.70
2023-04-02T09:59:04.068Z,3.70
2023-04-02T10:01:36.506Z,3.70
2023-04-02T10:04:05.160Z,3.80
2023-04-02T10:06:33.693Z,3.90
2023-04-02T10:09:48.901Z,3.90
2023-04-02T10:12:16.324Z,3.90
2023-04-02T10:14:49.590Z,3.90
2023-04-02T10:17:22.130Z,3.80
2023-04-02T10:19:53.977Z,3.80
2023-04-02T10:22:22.230Z,3.80
2023-04-02T10:24:50.764Z,3.80
2023-04-02T10:27:44.635Z,3.80
2023-04-02T10:30:23.837Z,3.80
2023-04-02T10:32:59.579Z,3.90
2023-04-02T10:36:00.192Z,3.90
2023-04-02T10:38:42.647Z,4.00
2023-04-02T10:41:24.838Z,4.10
2023-04-02T10:43:51.589Z,4.10
2023-04-02T10:46:43.832Z,4.20
2023-04-02T10:49:39.797Z,4.20
2023-04-02T10:52:19.822Z,4.10
2023-04-02T10:54:54.756Z,4.10
2023-04-02T10:57:44.624Z,4.00
2023-04-02T11:00:11.897Z,4.10
2023-04-02T11:02:44.951Z,4.10
2023-04-02T11:05:40.359Z,4.10
2023-04-02T11:08:11.871Z,4.10
2023-04-02T11:10:43.697Z,4.20
2023-04-02T11:13:22.889Z,4.20
2023-04-02T11:15:50.731Z,4.10
2023-04-02T11:18:24.480Z,4.20
2023-04-02T11:20:51.317Z,4.20
2023-04-02T11:23:20.234Z,4.20
2023-04-02T11:25:47.853Z,4.30
2023-04-02T11:28:32.046Z,4.30
2023-04-02T11:30:59.089Z,4.20
2023-04-02T11:33:38.360Z,4.30
2023-04-02T11:36:54.966Z,4.30
2023-04-02T11:39:55.161Z,4.40
2023-04-02T11:42:36.719Z,4.40
2023-04-02T11:45:24.227Z,4.40
2023-04-02T11:48:00.809Z,4.40
2023-04-02T11:50:37.870Z,4.30
2023-04-02T11:53:12.322Z,4.30
2023-04-02T11:55:45.523Z,4.30
2023-04-02T11:58:34.193Z,4.30
2023-04-02T12:01:14.814Z,4.40
2023-04-02T12:04:09.046Z,4.40
2023-04-02T12:06:56.216Z,4.50
2023-04-02T12:09:27.219Z,4.50
2023-04-02T12:11:56.597Z,4.50
2023-04-02T12:14:35.518Z,4.60
2023-04-02T12:17:21.533Z,4.60
2023-04-02T12:19:51.555Z,4.60
2023-04-02T12:22:33.078Z,4.60
2023-04-02T12:25:05.152Z,4.50
2023-04-02T12:27:32.093Z,4.30
2023-04-02T12:30:21.647Z,4.30
2023-04-02T12:32:49.525Z,4.30
2023-04-02T12:35:36.079Z,4.40
2023-04-02T12:38:03.039Z,4.40
2023-04-02T12:40:29.909Z,4.50
2023-04-02T12:42:56.785Z,4.60
2023-04-02T12:45:33.330Z,4.60
2023-04-02T12:48:05.154Z,4.60
2023-04-02T12:50:34.207Z,4.60
2023-04-02T12:53:01.729Z,4.60
2023-04-02T12:55:28.713Z,4.70
2023-04-02T12:58:00.057Z,4.70
2023-04-02T13:00:30.386Z,4.60
2023-04-02T13:03:05.846Z,4.50
2023-04-02T13:05:34.587Z,4.50
2023-04-02T13:08:01.932Z,4.60
2023-04-02T13:10:29.035Z,4.60
2023-04-02T13:13:05.043Z,4.60
2023-04-02T13:15:34.443Z,4.70
2023-04-02T13:18:06.644Z,4.70
2023-04-02T13:20:39.982Z,4.80
2023-04-02T13:23:39.275Z,4.80
2023-04-02T13:26:08.975Z,4.80
2023-04-02T13:28:36.064Z,4.70
2023-04-02T13:31:03.078Z,4.70
2023-04-02T13:33:29.925Z,4.60
2023-04-02T13:35:56.824Z,4.80
2023-04-02T13:38:23.917Z,4.80
2023-04-02T13:40:51.761Z,4.90
2023-04-02T13:43:20.632Z,4.90
2023-04-02T13:45:52.956Z,5.00
2023-04-02T13:48:19.872Z,5.00
2023-04-02T13:50:46.916Z,5.00
2023-04-02T13:53:23.753Z,5.10
2023-04-02T13:55:52.109Z,5.10
2023-04-02T13:58:19.177Z,4.90
2023-04-02T14:00:46.971Z,4.80
2023-04-02T14:03:21.767Z,5.00
2023-04-02T14:06:03.413Z,5.00
2023-04-02T14:08:39.272Z,5.10
2023-04-02T14:11:39.468Z,5.00
2023-04-02T14:14:27.233Z,4.90
2023-04-02T14:17:33.961Z,4.90
2023-04-02T14:20:32.782Z,5.00
2023-04-02T14:23:25.111Z,5.10
2023-04-02T14:26:10.590Z,5.10
2023-04-02T14:28:47.019Z,5.10
2023-04-02T14:31:22.930Z,5.20
2023-04-02T14:34:12.533Z,5.20
2023-04-02T14:39:42.899Z,5.30
2023-04-02T14:42:16.710Z,5.30
2023-04-02T14:44:57.748Z,5.40
2023-04-02T14:47:32.240Z,5.40
2023-04-02T14:50:27.974Z,5.30
2023-04-02T14:53:01.657Z,5.20
2023-04-02T14:55:43.597Z,5.30
2023-04-02T14:58:41.385Z,5.30
2023-04-02T15:01:20.141Z,5.50
2023-04-02T15:03:58.280Z,5.40
2023-04-02T15:06:33.748Z,5.40
2023-04-02T15:09:32.298Z,5.50
2023-04-02T15:12:23.594Z,5.60
2023-04-02T15:14:59.108Z,5.60
2023-04-02T15:17:26.137Z,5.70
2023-04-02T15:20:02.231Z,5.80
2023-04-02T15:22:47.645Z,5.90
2023-04-02T15:25:47.257Z,6.00
2023-04-02T15:28:26.609Z,6.00
2023-04-02T15:30:58.884Z,5.70
2023-04-02T15:33:37.533Z,5.40
2023-04-02T15:36:21.542Z,5.40
2023-04-02T15:38:56.671Z,5.30
2023-04-02T15:41:27.512Z,5.40
2023-04-02T15:44:14.344Z,5.20
2023-04-02T15:47:21.244Z,5.20
2023-04-02T15:50:15.183Z,5.30
2023-04-02T15:52:50.624Z,5.00
2023-04-02T15:55:39.657Z,4.70
2023-04-02T15:58:24.216Z,4.70
2023-04-02T16:01:18.530Z,4.70
2023-04-02T16:03:56.452Z,4.60
2023-04-02T16:06:33.005Z,4.40
2023-04-02T16:09:28.122Z,4.20
2023-04-02T16:12:33.467Z,4.10
2023-04-02T16:15:13.953Z,4.00
2023-04-02T16:17:43.766Z,4.00
2023-04-02T16:20:40.251Z,4.10
2023-04-02T16:23:11.605Z,4.20
2023-04-02T16:25:57.208Z,4.30
2023-04-02T16:28:31.104Z,4.30
2023-04-02T16:31:09.636Z,4.30
2023-04-02T16:33:51.975Z,4.40
2023-04-02T16:36:31.082Z,4.40
2023-04-02T16:39:19.656Z,4.50
2023-04-02T16:41:59.431Z,4.50
2023-04-02T16:44:58.416Z,4.50
2023-04-02T16:47:46.500Z,4.40
2023-04-02T16:50:26.217Z,4.40
2023-04-02T16:53:02.159Z,4.30
2023-04-02T16:56:10.744Z,4.30
2023-04-02T16:59:05.383Z,4.20
2023-04-02T17:01:32.189Z,4.10
2023-04-02T17:04:36.511Z,3.80
2023-04-02T17:07:15.236Z,3.40
2023-04-02T17:09:51.182Z,2.80
2023-04-02T17:12:27.686Z,2.50
2023-04-02T17:15:01.474Z,2.40
2023-04-02T17:17:28.358Z,2.30
2023-04-02T17:20:01.178Z,2.10
2023-04-02T17:22:31.554Z,2.10
2023-04-02T17:25:02.895Z,2.00
2023-04-02T17:27:37.269Z,1.90
2023-04-02T17:30:16.971Z,1.80
2023-04-02T17:32:44.175Z,1.70
2023-04-02T17:35:18.585Z,1.70
2023-04-02T17:38:12.344Z,1.60
2023-04-02T17:40:51.280Z,1.60
2023-04-02T17:43:33.204Z,1.50
2023-04-02T17:46:10.262Z,1.40
2023-04-02T17:48:46.972Z,1.40
2023-04-02T17:51:34.181Z,1.30
2023-04-02T17:54:27.774Z,1.20
2023-04-02T17:57:19.859Z,1.20
2023-04-02T17:59:55.847Z,1.10
2023-04-02T18:02:25.975Z,1.00
2023-04-02T18:05:14.828Z,1.10
2023-04-02T18:08:12.442Z,1.00
2023-04-02T18:10:48.587Z,1.00
2023-04-02T18:13:21.071Z,1.00
2023-04-02T18:16:02.893Z,1.00
2023-04-02T18:19:03.471Z,0.90
2023-04-02T18:21:33.388Z,0.90
2023-04-02T18:24:13.904Z,0.90
2023-04-02T18:26:47.627Z,0.90
2023-04-02T18:29:39.136Z,0.90
2023-04-02T18:32:38.093Z,0.90
2023-04-02T18:35:29.498Z,0.90
2023-04-02T18:38:32.644Z,0.90
2023-04-02T18:41:22.850Z,0.90
2023-04-02T18:44:26.043Z,0.90
2023-04-02T18:46:58.981Z,0.80
2023-04-02T18:49:32.641Z,0.80
2023-04-02T18:52:03.054Z,0.80
2023-04-02T18:54:30.045Z,0.80
2023-04-02T18:56:56.914Z,0.80
2023-04-02T18:59:38.366Z,0.80
2023-04-02T19:02:28.067Z,0.80
2023-04-02T19:05:03.363Z,0.80
2023-04-02T19:07:36.122Z,0.80
2023-04-02T19:10:23.985Z,0.80
2023-04-02T19:12:50.858Z,0.80
2023-04-02T19:15:20.284Z,0.70
2023-04-02T19:17:59.066Z,0.80
2023-04-02T19:20:50.833Z,0.70
2023-04-02T19:23:45.110Z,0.80
2023-04-02T19:26:18.373Z,0.80
2023-04-02T19:29:02.336Z,0.80
2023-04-02T19:31:52.289Z,0.80
2023-04-02T19:34:33.475Z,0.80
2023-04-02T19:37:14.041Z,0.70
2023-04-02T19:39:56.348Z,0.70
2023-04-02T19:42:49.042Z,0.60
2023-04-02T19:45:48.345Z,0.60
2023-04-02T19:48:27.642Z,0.60
2023-04-02T19:50:54.502Z,0.60
2023-04-02T19:53:21.415Z,0.60
2023-04-02T19:55:48.312Z,0.50
2023-04-02T19:58:35.471Z,0.60
2023-04-02T20:01:02.713Z,0.50
2023-04-02T20:03:30.395Z,0.50
2023-04-02T20:05:59.487Z,0.50
2023-04-02T20:08:27.057Z,0.50
2023-04-02T20:10:54.008Z,0.50
2023-04-02T20:13:20.863Z,0.50
2023-04-02T20:15:47.815Z,0.50
2023-04-02T20:18:14.641Z,0.50
2023-04-02T20:20:41.456Z,0.50
2023-04-02T20:23:08.321Z,0.50
2023-04-02T20:25:35.654Z,0.50
2023-04-02T20:28:03.981Z,0.50
2023-04-02T20:30:32.563Z,0.60
2023-04-02T20:32:59.944Z,0.50
2023-04-02T20:35:27.422Z,0.60
2023-04-02T20:37:54.329Z,0.60
2023-04-02T20:40:21.752Z,0.50
2023-04-02T20:42:48.576Z,0.50
2023-04-02T20:45:15.887Z,0.50
2023-04-02T20:47:43.317Z,0.50
2023-04-02T20:50:10.589Z,0.50
2023-04-02T20:52:37.475Z,0.60
2023-04-02T20:55:04.617Z,0.60
2023-04-02T20:57:31.522Z,0.60
2023-04-02T20:59:59.054Z,0.60
2023-04-02T21:02:26.147Z,0.60
2023-04-02T21:04:53.193Z,0.60
2023-04-02T21:07:20.037Z,0.60
2023-04-02T21:09:46.909Z,0.60
2023-04-02T21:12:13.960Z,0.60
2023-04-02T21:14:40.772Z,0.60
2023-04-02T21:17:07.846Z,0.60
2023-04-02T21:19:35.263Z,0.60
2023-04-02T21:22:02.569Z,0.50
2023-04-02T21:24:29.477Z,0.50
2023-04-02T21:26:56.307Z,0.50
2023-04-02T21:29:23.134Z,0.50
2023-04-02T21:31:50.489Z,0.50
2023-04-02T21:34:17.384Z,0.60
2023-04-02T21:36:46.524Z,0.50
2023-04-02T21:39:20.452Z,0.50
2023-04-02T21:41:50.109Z,0.50
2023-04-02T21:44:19.428Z,0.50
2023-04-02T21:46:46.391Z,0.50
2023-04-02T21:49:16.269Z,0.50
2023-04-02T21:51:45.564Z,0.50
2023-04-02T21:54:13.339Z,0.50
2023-04-02T21:56:43.530Z,0.50
2023-04-02T21:59:12.186Z,0.50
2023-04-02T22:01:44.925Z,0.50
2023-04-02T22:04:17.361Z,0.50
2023-04-02T22:06:44.757Z,0.50
2023-04-02T22:09:14.750Z,0.50
2023-04-02T22:11:48.848Z,0.50
2023-04-02T22:14:15.964Z,0.50
2023-04-02T22:16:43.387Z,0.50
2023-04-02T22:19:13.415Z,0.40
2023-04-02T22:21:41.066Z,0.40
2023-04-02T22:24:09.360Z,0.40
2023-04-02T22:26:36.605Z,0.40
2023-04-02T22:29:04.222Z,0.40
2023-04-02T22:31:33.372Z,0.50
2023-04-02T22:34:01.442Z,0.40
2023-04-02T22:36:29.296Z,0.50
2023-04-02T22:38:57.249Z,0.50
2023-04-02T22:41:27.405Z,0.50
2023-04-02T22:43:56.122Z,0.40
2023-04-02T22:46:23.576Z,0.40
2023-04-02T22:48:50.685Z,0.50
2023-04-02T22:51:19.905Z,0.50
2023-04-02T22:53:47.474Z,0.40
2023-04-02T22:56:19.753Z,0.40
2023-04-02T22:58:46.620Z,0.40
2023-04-02T23:01:22.070Z,0.40
2023-04-02T23:03:49.494Z,0.40
2023-04-02T23:06:18.079Z,0.30
2023-04-02T23:08:46.076Z,0.30
2023-04-02T23:11:16.574Z,0.30
2023-04-02T23:13:44.859Z,0.30
2023-04-02T23:16:14.063Z,0.20
2023-04-02T23:18:42.986Z,0.20
2023-04-02T23:21:10.314Z,0.20
2023-04-02T23:23:38.384Z,0.20
2023-04-02T23:26:08.885Z,0.20
2023-04-02T23:28:36.253Z,0.20
2023-04-02T23:31:04.834Z,0.20
2023-04-02T23:33:31.690Z,0.20
2023-04-02T23:35:59.011Z,0.20
2023-04-02T23:38:27.196Z,0.20
2023-04-02T23:40:54.086Z,0.20
2023-04-02T23:43:21.190Z,0.20
2023-04-02T23:45:51.177Z,0.20
2023-04-02T23:48:18.076Z,0.20
2023-04-02T23:50:45.838Z,0.20
2023-04-02T23:53:13.353Z,0.20
2023-04-02T23:55:41.391Z,0.20
2023-04-02T23:58:08.302Z,0.20
